Garcia del Cid — EHUU — position and weather

sailwx.info

Track history (hours):
 
Tides and Currents Weather Stations Pressure Air Temp Water Temp Dewpoint Dewpoint Depression Visibility Wind Speed Wind Dir Waves Ship Positions

Oceanographic research ship Garcia del Cid (Spain)

Detailed information on ship capabilities available from University of Delaware's Ocean Information Center.

Last reported at 2017-Sep-17 10:30 UTC. Time now 2017-Sep-25 11:51 UTC.
Position N 40°54' E 002°53'.
Warning: this ship's position is 8 days out of date.

Length 30 m; draft 4.8 m.

Type: Dredging. MMSI: 224799000.

Date/timePositionNaut miles runAvg speedWind from/ knotsBaromVisibWave heightAir tempDewpointWater temp
2017-Sep-17 10:30N 40°54' E 002°53'4 7.9
2017-Sep-17 10:00N 40°51' E 002°55'1 2.2
2017-Sep-17 09:30N 40°50' E 002°55'0 0.9
2017-Sep-17 08:59N 40°49' E 002°55'0 0.4
2017-Sep-17 08:28N 40°49' E 002°54'0 0.2
2017-Sep-17 08:00N 40°49' E 002°54'0 0.1
2017-Sep-17 07:29N 40°49' E 002°54'4 6.1
2017-Sep-17 06:48N 40°47' E 002°50'4 8.6
2017-Sep-17 06:21N 40°44' E 002°47'3 8.6
2017-Sep-17 05:59N 40°41' E 002°44'4 8.5
2017-Sep-17 05:30N 40°38' E 002°41'4 8.3
2017-Sep-17 05:00N 40°35' E 002°37'4 7.9
2017-Sep-17 04:29N 40°32' E 002°33'1 1.7
2017-Sep-17 03:59N 40°33' E 002°34'3 5.4
2017-Sep-17 03:30N 40°35' E 002°36'3 6.1
2017-Sep-17 02:59N 40°37' E 002°39'3 6.0
2017-Sep-17 02:30N 40°39' E 002°42'3 5.4
2017-Sep-17 02:00N 40°41' E 002°44'3 5.3
2017-Sep-17 01:30N 40°43' E 002°47'3 5.3
2017-Sep-17 01:00N 40°45' E 002°50'2 4.7
2017-Sep-17 00:30N 40°46' E 002°52'3 5.1
2017-Sep-17 00:00N 40°48' E 002°54'3 5.0
2017-Sep-16 23:30N 40°50' E 002°57'4 5.6
2017-Sep-16 22:49N 40°52' E 003°01'2 5.8
2017-Sep-16 22:23N 40°53' E 003°04'3 5.3
2017-Sep-16 21:54N 40°54' E 003°07'54 1.5
2017-Sep-15 09:46N 41°06' E 001°57'0 1.5
2017-Sep-15 09:30N 41°06' E 001°56'5 6.6
2017-Sep-15 08:46N 41°10' E 002°00'8 0.2
2017-Sep-13 22:33N 41°15' E 002°08'  
Track history (hours):
 
Tides and Currents Weather Stations Pressure Air Temp Water Temp Dewpoint Dewpoint Depression Visibility Wind Speed Wind Dir Waves Ship Positions

Oceanographic research ship Garcia del Cid (Spain)

Detailed information on ship capabilities available from University of Delaware's Ocean Information Center.

Last reported at 2017-Sep-17 10:30 UTC. Time now 2017-Sep-25 11:51 UTC.
Position N 40°54' E 002°53'.
Warning: this ship's position is 8 days out of date.

Length 30 m; draft 4.8 m.

Type: Dredging. MMSI: 224799000.

Date/timePositionNaut miles runAvg speedWind from/ knotsBaromVisibWave heightAir tempDewpointWater temp
2017-Sep-17 10:30N 40°54' E 002°53'4 7.9
2017-Sep-17 10:00N 40°51' E 002°55'1 2.2
2017-Sep-17 09:30N 40°50' E 002°55'0 0.9
2017-Sep-17 08:59N 40°49' E 002°55'0 0.4
2017-Sep-17 08:28N 40°49' E 002°54'0 0.2
2017-Sep-17 08:00N 40°49' E 002°54'0 0.1
2017-Sep-17 07:29N 40°49' E 002°54'4 6.1
2017-Sep-17 06:48N 40°47' E 002°50'4 8.6
2017-Sep-17 06:21N 40°44' E 002°47'3 8.6
2017-Sep-17 05:59N 40°41' E 002°44'4 8.5
2017-Sep-17 05:30N 40°38' E 002°41'4 8.3
2017-Sep-17 05:00N 40°35' E 002°37'4 7.9
2017-Sep-17 04:29N 40°32' E 002°33'1 1.7
2017-Sep-17 03:59N 40°33' E 002°34'3 5.4
2017-Sep-17 03:30N 40°35' E 002°36'3 6.1
2017-Sep-17 02:59N 40°37' E 002°39'3 6.0
2017-Sep-17 02:30N 40°39' E 002°42'3 5.4
2017-Sep-17 02:00N 40°41' E 002°44'3 5.3
2017-Sep-17 01:30N 40°43' E 002°47'3 5.3
2017-Sep-17 01:00N 40°45' E 002°50'2 4.7
2017-Sep-17 00:30N 40°46' E 002°52'3 5.1
2017-Sep-17 00:00N 40°48' E 002°54'3 5.0
2017-Sep-16 23:30N 40°50' E 002°57'4 5.6
2017-Sep-16 22:49N 40°52' E 003°01'2 5.8
2017-Sep-16 22:23N 40°53' E 003°04'3 5.3
2017-Sep-16 21:54N 40°54' E 003°07'54 1.5
2017-Sep-15 09:46N 41°06' E 001°57'0 1.5
2017-Sep-15 09:30N 41°06' E 001°56'5 6.6
2017-Sep-15 08:46N 41°10' E 002°00'8 0.2
2017-Sep-13 22:33N 41°15' E 002°08'  

Dump ship's entire track history